Terminal Aerodrome Forecast
Issued by NWS

Home | Current Version | Previous Version | Text Only | Print | Product List | Glossary Off
Versions: 1 2 3 4 5 6 7 8 9 10 11 12 13 14

000
FTUS43 KFGF 230520
TAFBJI
TAF
KBJI 230520Z 2306/2406 VRB03KT P6SM BKN250
     FM231400 12011KT P6SM BKN250
     FM232200 13011KT P6SM VCTS BKN090CB
     FM240500 18005KT P6SM BKN100=

USA.gov is the U.S. government's official web portal to all federal, state and local government web resources and services.